Date,TemperatureHighF,TemperatureAvgF,TemperatureLowF,DewpointHighF,DewpointAvgF,DewpointLowF,HumidityHigh,HumidityAvg,HumidityLow,PressureMaxIn,PressureMinIn,WindSpeedMaxMPH,WindSpeedAvgMPH,GustSpeedMaxMPH,PrecipitationSumIn
2013-1-1,36,32,23,29,24,12,78,71,59,29.94,29.78,6,3,0,0.00
2013-1-2,29,23,18,16,14,10,74,66,55,30.10,29.92,6,2,0,0.00
2013-1-3,30,25,17,20,16,13,86,70,57,30.11,30.00,5,2,0,0.00
2013-1-4,34,31,28,24,22,19,79,68,60,30.01,29.89,8,4,0,0.00
2013-1-5,39,31,25,24,21,18,85,68,51,30.22,29.94,8,2,0,0.00
2013-1-6,42,35,29,30,27,23,89,73,59,30.16,29.92,6,2,0,0.00
2013-1-7,41,35,26,29,26,22,88,72,50,30.33,29.99,7,2,3,0.00
2013-1-8,46,35,26,31,28,23,89,74,54,30.33,30.27,7,1,15,0.00
2013-1-9,44,36,26,38,31,23,93,83,69,30.33,30.07,8,2,18,0.00
2013-1-10,45,39,32,32,27,25,81,62,46,30.48,30.17,7,2,17,0.00
2013-1-11,39,36,30,38,31,25,96,84,70,30.47,30.05,3,0,0,0.00
2013-1-12,46,40,37,45,39,36,97,96,91,30.11,30.04,1,0,0,0.00
2013-1-13,46,43,39,45,42,38,98,98,97,30.11,29.96,2,0,0,0.00
2013-1-14,54,46,36,51,41,28,98,83,55,30.25,29.87,6,2,0,0.00
2013-1-15,35,33,33,31,30,30,91,88,82,30.23,30.15,4,2,0,0.00
2013-1-16,34,32,29,33,31,28,97,95,94,29.87,29.80,4,1,8,0.00
2013-1-17,39,35,32,32,28,23,94,76,66,30.04,29.86,10,2,19,0.30
2013-1-18,32,25,21,24,13,5,80,61,40,30.38,29.94,9,3,22,0.01
2013-1-19,45,35,22,29,23,11,77,62,46,30.30,29.85,8,3,20,0.23
2013-1-20,48,38,25,30,23,11,75,56,29,29.97,29.65,12,4,30,0.04
2013-1-21,26,24,21,19,13,8,83,63,50,30.00,29.76,8,1,14,0.00
2013-1-22,22,15,9,12,3,-5,79,58,38,30.10,29.75,12,4,21,0.00
2013-1-23,15,10,6,3,-2,-6,82,61,41,30.14,30.06,8,2,17,0.00
2013-1-24,20,12,6,4,1,-2,85,63,39,30.32,30.02,11,3,25,0.00
2013-1-25,21,14,9,13,5,-2,89,69,48,30.32,29.96,10,2,16,0.00
2013-1-26,25,16,10,11,8,6,91,70,49,30.29,29.95,8,2,18,0.00
2013-1-27,31,22,14,15,11,8,79,65,40,30.44,30.29,9,2,17,0.00
2013-1-28,34,27,19,33,24,13,96,87,72,30.41,29.93,4,1,12,0.04
2013-1-29,50,41,34,44,39,33,97,91,74,30.08,29.94,3,0,11,0.31
2013-1-30,61,48,37,59,46,36,98,97,91,30.01,29.30,6,1,16,0.32
2013-1-31,55,35,25,54,21,10,98,56,42,29.71,29.27,18,7,33,1.50
2013-2-1,27,23,19,16,12,2,82,63,35,30.14,29.71,13,4,25,0.01
2013-2-2,24,19,13,17,10,6,89,70,49,30.19,29.96,8,2,15,0.00
2013-2-3,27,21,16,21,17,14,93,86,71,29.96,29.72,4,0,12,0.05
2013-2-4,27,22,18,20,12,8,89,64,46,29.89,29.73,9,3,19,0.01
2013-2-5,28,25,22,25,21,16,93,86,75,29.88,29.81,4,0,5,0.00
2013-2-6,35,29,24,27,21,9,94,71,46,30.28,29.84,10,2,21,0.03
2013-2-7,29,24,17,18,12,9,73,60,48,30.41,30.24,3,1,9,0.01
2013-2-8,31,29,26,29,26,18,94,90,72,30.24,29.61,7,3,16,0.00
2013-2-9,29,24,16,27,16,7,95,71,44,30.27,29.70,16,6,28,0.03
2013-2-10,39,24,14,18,12,8,83,63,30,30.39,30.24,8,2,15,0.26
2013-2-11,42,36,28,41,33,18,97,91,64,30.24,29.61,7,1,17,0.28
2013-2-12,40,37,32,37,27,24,97,67,57,29.92,29.66,11,4,29,0.01
2013-2-13,43,33,23,31,25,20,94,75,52,29.89,29.62,2,0,10,0.00
2013-2-14,42,34,29,30,28,25,94,79,57,29.93,29.65,5,0,10,0.00
2013-2-15,51,40,29,33,29,25,93,66,40,29.95,29.87,9,2,19,0.03
2013-2-16,33,30,25,31,23,11,94,76,54,29.92,29.70,11,2,19,0.09
2013-2-17,27,22,14,12,6,0,59,49,38,29.91,29.63,15,6,35,0.01
2013-2-18,33,22,12,15,7,1,65,52,34,30.17,29.91,14,4,30,0.00
2013-2-19,40,32,21,39,26,14,95,78,58,30.10,29.63,9,2,21,0.40
2013-2-20,33,26,21,24,14,10,72,61,49,29.90,29.66,16,6,26,0.06
2013-2-21,30,24,19,16,13,11,76,63,52,30.22,29.89,14,6,24,0.00
2013-2-22,34,27,18,29,20,13,88,76,60,30.32,30.19,6,1,12,0.00
2013-2-23,39,35,32,38,34,29,97,96,88,30.19,29.77,6,1,14,0.22
2013-2-24,41,35,29,37,30,21,97,83,66,29.92,29.72,9,3,18,0.03
2013-2-25,39,34,29,30,26,21,86,75,63,30.18,29.92,9,2,15,0.00
2013-2-26,41,34,26,32,29,24,94,83,67,30.22,29.82,9,2,21,0.08
2013-2-27,45,40,33,43,38,31,96,91,82,29.83,29.46,10,3,22,0.66
2013-2-28,44,38,34,36,32,26,95,78,56,29.57,29.50,6,1,13,0.01
2013-3-1,41,35,32,30,28,24,91,75,60,29.74,29.56,9,3,18,0.00
2013-3-2,35,30,27,25,23,21,87,74,64,29.73,29.65,9,4,18,0.00
2013-3-3,34,28,25,21,18,15,77,68,56,29.71,29.63,11,5,20,0.00
2013-3-4,37,30,24,21,19,15,76,64,49,29.85,29.71,12,6,23,0.00
2013-3-5,44,34,28,27,24,21,79,66,48,29.96,29.85,11,3,20,0.00
2013-3-6,38,36,34,34,30,26,90,78,71,29.91,29.80,13,4,21,0.03
2013-3-7,38,34,30,32,28,24,94,79,66,30.03,29.90,12,5,27,0.01
2013-3-8,41,32,27,34,28,25,94,86,67,30.17,29.96,10,5,19,0.22
2013-3-9,56,39,29,29,24,19,74,58,24,30.27,30.14,10,3,17,0.01
2013-3-10,52,39,27,36,29,22,92,70,44,30.31,30.21,6,1,16,0.00
2013-3-11,53,42,34,46,39,32,97,89,58,30.25,30.03,6,1,13,0.01
2013-3-12,55,49,40,54,46,36,96,91,81,30.04,29.63,13,3,19,1.27
2013-3-13,40,39,38,36,35,34,85,83,82,29.82,29.80,5,2,10,1.27
2013-3-14,37,33,30,11,8,6,45,35,28,29.89,29.79,14,6,24,0.00
2013-3-15,43,34,25,31,20,11,71,57,47,29.91,29.66,10,4,22,0.00
2013-3-16,38,35,34,29,26,23,72,69,65,29.74,29.72,4,1,12,0.00
2013-3-18,31,28,26,28,23,15,95,80,58,30.28,29.93,7,4,20,0.00
2013-3-19,44,34,29,37,31,17,96,88,52,29.93,29.63,10,2,21,0.52
2013-3-20,41,34,28,24,20,15,72,57,36,29.81,29.72,10,4,21,0.04
2013-3-21,36,30,26,26,17,11,89,60,38,29.78,29.57,9,3,16,0.00
2013-3-22,37,30,24,23,18,12,74,60,47,29.82,29.65,9,3,18,0.00
2013-3-23,42,35,29,23,20,18,69,55,40,29.88,29.79,9,4,22,0.00
2013-3-24,43,36,27,25,21,18,72,55,42,29.89,29.64,12,2,19,0.00
2013-3-25,37,35,32,32,28,23,92,75,59,29.64,29.41,6,1,17,0.07
2013-3-26,48,39,33,31,28,23,87,67,40,29.82,29.54,10,2,18,0.02
2013-3-27,48,39,30,32,27,21,81,64,35,29.94,29.82,10,2,21,0.00
2013-3-28,45,39,33,32,29,27,84,68,52,30.08,29.91,11,3,18,0.00
2013-3-29,50,42,35,31,29,26,76,59,40,30.10,30.03,9,3,21,0.00
2013-3-30,56,43,32,32,25,14,84,54,19,30.12,30.02,7,2,15,0.00
2013-3-31,54,42,30,42,31,-100,95,70,40,30.08,29.65,9,2,21,0.21
2013-4-1,56,45,33,45,35,12,96,72,34,29.85,29.60,11,3,23,0.22
2013-4-2,39,33,28,19,13,10,63,44,30,30.03,29.85,11,4,24,0.01
2013-4-3,42,34,28,15,12,9,57,40,28,30.24,30.01,12,4,24,0.00
2013-4-4,51,39,28,24,19,14,61,45,28,30.31,30.02,11,3,27,0.00
2013-4-5,59,45,32,28,23,18,77,45,22,30.02,29.70,10,4,22,0.00
2013-4-6,51,39,30,24,15,8,65,41,17,30.24,29.95,9,3,19,0.00
2013-4-7,61,47,34,42,33,25,80,60,38,30.23,29.93,10,3,22,0.00
2013-4-8,74,59,45,47,42,37,84,56,26,30.04,29.93,8,2,14,0.00
2013-4-9,80,66,50,52,45,35,89,50,21,29.96,29.88,12,3,25,0.00
2013-4-10,80,65,57,57,53,43,96,69,43,29.90,29.78,6,2,18,0.66
2013-4-11,59,54,44,57,50,42,97,87,62,29.98,29.76,7,2,17,0.66
2013-4-12,44,40,38,42,38,36,96,92,79,29.96,29.67,11,4,27,0.41
2013-4-13,55,46,38,41,36,33,97,72,46,29.93,29.71,8,2,22,0.03
2013-4-14,54,48,42,36,31,26,69,52,36,30.16,29.92,11,2,21,0.00
2013-4-15,58,48,40,38,31,26,73,53,42,30.31,30.16,7,2,16,0.00
2013-4-16,68,56,44,56,48,38,89,75,62,30.31,30.07,10,3,21,0.00
2013-4-17,69,58,49,56,41,31,90,57,25,30.25,30.09,9,3,17,0.01
2013-4-18,56,50,42,51,43,38,97,80,52,30.28,30.05,8,2,20,0.01
2013-4-19,74,63,52,64,59,51,98,88,68,30.05,29.60,10,4,23,0.06
2013-4-22,46,43,40,34,32,28,79,65,51,30.46,30.43,5,1,9,0.00
2013-4-23,48,42,36,41,36,30,87,79,74,30.43,30.09,8,1,14,0.00
2013-4-24,69,54,36,54,45,34,94,74,53,30.09,29.77,9,2,17,0.00
2013-4-25,62,52,41,54,30,18,85,48,19,30.22,29.81,10,4,21,0.01
2013-4-26,63,52,42,36,29,21,67,45,20,30.37,30.22,8,2,18,0.00
2013-4-27,68,53,37,38,32,26,81,48,25,30.39,30.23,6,1,12,0.00
2013-4-28,68,56,40,41,36,29,85,51,34,30.27,30.14,8,2,15,0.00
2013-4-29,54,50,49,49,46,36,96,87,51,30.20,30.13,4,1,14,0.13
2013-4-30,65,54,43,50,40,24,97,65,25,30.30,30.16,7,1,14,0.03
2013-5-1,66,52,38,44,34,23,83,54,22,30.45,30.29,9,1,17,0.01
2013-5-2,73,57,40,46,40,37,95,60,30,30.44,30.29,6,1,14,0.00
2013-5-3,63,55,46,44,37,29,83,54,29,30.41,30.31,8,2,18,0.00
2013-5-4,69,54,41,45,40,36,95,66,31,30.33,30.18,8,1,18,0.00
2013-5-5,63,50,39,43,39,33,95,70,33,30.25,30.16,6,1,14,0.00
2013-5-6,68,53,39,54,46,37,95,78,55,30.22,30.11,5,1,13,0.00
2013-5-7,70,59,46,58,51,45,96,76,53,30.14,30.06,8,1,16,0.00
2013-5-8,65,60,53,61,57,51,97,92,82,30.07,29.93,5,1,15,0.95
2013-5-9,66,57,51,57,53,50,97,89,66,29.98,29.88,4,0,10,0.06
2013-5-10,78,64,52,59,53,-100,97,72,38,29.98,29.88,5,1,12,0.01
2013-5-11,69,63,59,63,61,58,95,91,77,29.90,29.69,6,1,14,0.66
2013-5-12,63,56,46,57,38,-100,95,57,27,29.91,29.66,12,3,23,0.02
2013-5-13,51,45,39,33,29,24,79,54,35,30.07,29.91,7,2,18,0.00
2013-5-14,58,46,34,33,28,19,88,54,22,30.10,29.99,7,2,16,0.00
2013-5-15,71,56,41,58,45,32,89,68,56,30.03,29.65,10,1,18,0.02
2013-5-16,59,57,56,56,55,54,94,92,90,29.72,29.71,0,0,1,0.02
2013-5-21,83,76,70,70,68,66,88,77,65,29.86,29.84,6,1,13,0.00
2013-5-22,82,72,62,72,67,61,97,87,68,29.91,29.82,4,1,13,0.00
2013-5-23,75,68,62,69,66,60,97,92,77,29.88,29.73,6,2,19,2.42
2013-5-24,66,51,42,65,49,40,97,93,85,29.94,29.68,10,4,22,2.53
2013-5-25,53,46,41,42,39,35,94,77,55,29.98,29.89,11,5,24,0.27
2013-5-26,64,53,44,40,36,31,78,55,31,30.18,29.95,10,4,29,0.02
2013-5-27,73,58,42,46,39,35,78,53,26,30.22,30.10,6,1,13,0.00
2013-5-28,62,54,48,54,50,43,97,85,60,30.19,30.10,6,0,11,0.54
2013-5-29,83,68,55,69,62,54,98,83,60,30.10,30.00,6,1,15,0.05
2013-5-30,90,78,66,66,65,60,93,66,39,30.13,30.06,5,1,12,0.01
2013-5-31,90,78,68,72,65,60,90,67,40,30.12,30.00,6,1,13,0.00
2013-6-1,88,77,65,70,67,63,95,72,55,30.02,29.90,8,1,17,0.00
2013-6-2,84,76,69,70,67,-100,95,77,60,29.91,29.78,8,2,17,0.28
2013-6-3,78,70,62,68,62,49,96,79,59,29.89,29.80,6,1,13,0.55
2013-6-4,73,62,51,48,44,41,79,55,31,30.11,29.90,7,3,16,0.01
2013-6-5,72,61,48,50,45,39,78,57,41,30.19,30.09,4,1,13,0.00
2013-6-6,66,58,50,58,53,48,96,85,58,30.11,29.97,5,1,15,0.27
2013-6-7,60,59,57,59,58,56,97,96,95,29.97,29.62,5,1,12,1.83
2013-6-8,74,64,55,64,60,54,97,86,68,30.06,29.61,7,2,20,0.75
2013-6-9,80,67,56,62,58,55,98,76,48,30.16,30.06,6,1,15,0.01
2013-6-10,65,63,61,63,61,58,97,93,87,30.15,29.80,6,1,15,1.29
2013-6-11,76,69,61,66,64,59,98,85,67,29.80,29.63,8,2,17,0.90
2013-6-12,75,67,58,61,56,53,87,68,50,29.85,29.71,10,3,20,0.02
2013-6-13,59,58,55,58,56,53,97,93,86,29.84,29.44,8,1,17,0.66
2013-6-14,72,58,51,61,54,49,95,86,54,29.90,29.53,9,2,23,1.07
2013-6-15,78,65,54,59,55,51,97,72,39,30.01,29.90,6,1,15,0.11
2013-6-16,78,67,55,65,57,50,89,72,51,29.99,29.78,8,1,18,0.01
2013-6-17,84,72,61,67,63,57,97,74,41,29.90,29.83,8,1,14,0.00
2013-6-18,81,68,60,69,62,57,95,82,48,29.90,29.80,6,0,12,0.37
2013-6-19,75,64,55,58,52,45,94,68,40,30.15,29.88,5,1,15,0.30
2013-6-20,77,63,50,58,53,48,95,74,45,30.25,30.14,4,0,13,0.00
2013-6-22,81,77,68,67,65,61,85,67,54,30.25,30.11,6,1,14,0.00
2013-6-23,85,75,66,70,67,63,91,77,59,30.18,30.06,7,2,14,0.00
2013-6-24,90,76,68,71,69,64,94,81,50,30.07,29.96,7,1,13,0.03
2013-6-25,87,77,67,73,68,65,95,76,55,30.01,29.82,7,1,13,0.10
2013-6-26,82,74,68,70,68,64,94,81,62,29.86,29.80,5,1,13,0.08
2013-6-27,85,73,66,72,68,65,97,86,61,29.83,29.53,6,1,13,1.18
2013-6-28,82,75,69,70,68,65,95,80,60,29.55,29.47,7,2,16,1.27
2013-6-29,82,73,65,68,65,62,94,77,54,29.70,29.48,7,1,14,0.09
2013-6-30,82,72,64,73,68,62,96,87,72,29.91,29.70,4,1,14,0.00
2013-7-1,74,72,69,72,70,68,97,95,92,30.03,29.88,4,0,13,0.80
2013-7-2,81,75,72,74,71,68,96,90,77,30.17,30.03,5,1,16,0.04
2013-7-3,83,76,70,74,71,68,94,86,73,30.24,30.16,5,1,11,0.01
2013-7-4,87,79,72,74,72,70,96,81,65,30.26,30.16,6,1,14,0.00
2013-7-5,88,79,72,74,72,70,94,80,59,30.22,30.10,6,1,17,0.00
2013-7-6,90,80,73,74,72,70,92,77,57,30.15,30.04,4,1,13,0.00
2013-7-7,90,80,70,76,72,67,94,77,58,30.07,29.95,8,1,16,0.15
2013-7-8,86,73,67,70,66,-100,94,82,53,30.05,29.98,7,1,12,0.15
2013-7-9,85,74,66,71,68,64,96,82,60,30.08,30.01,5,1,13,0.14
2013-7-10,83,74,69,74,68,-100,97,84,69,30.03,29.83,5,1,16,0.03
2013-7-11,83,75,69,74,68,61,95,78,59,29.94,29.81,3,0,9,0.02
2013-7-12,75,70,65,69,65,61,95,84,74,30.08,29.93,3,0,11,0.08
2013-7-13,77,70,64,74,69,63,98,95,87,30.28,30.09,5,1,12,0.21
2013-7-14,88,79,72,74,72,70,98,82,58,30.35,30.25,5,1,13,0.02
2013-7-15,91,80,73,75,72,70,93,78,54,30.27,30.16,5,1,11,0.00
2013-7-16,90,79,71,74,70,67,91,75,51,30.23,30.15,5,0,13,0.00
2013-7-17,93,78,71,74,70,67,94,78,45,30.22,30.08,3,0,7,0.00
2013-7-18,94,83,76,76,72,70,85,72,47,30.09,29.98,3,0,9,0.00
2013-7-19,92,84,74,78,74,70,88,74,57,29.98,29.81,5,1,16,0.00
2013-7-20,89,81,74,74,69,-100,85,70,53,29.85,29.75,7,2,19,0.00
2013-7-21,85,76,70,71,67,63,92,74,53,29.96,29.85,2,0,10,0.00
2013-7-22,82,72,66,73,68,63,96,88,73,29.96,29.80,3,0,10,0.49
2013-7-23,82,74,69,73,71,67,97,88,69,29.79,29.58,4,1,12,0.62
2013-7-24,76,71,61,68,63,52,96,77,56,29.95,29.63,9,2,15,0.07
2013-7-25,68,62,57,60,54,49,84,75,69,30.04,29.93,4,1,12,0.00
2013-7-26,80,69,62,63,60,57,86,74,50,30.04,30.00,4,1,11,0.00
2013-7-27,81,71,56,65,61,54,97,73,56,30.04,29.94,6,1,12,0.00
2013-7-28,73,67,64,70,65,60,96,93,82,29.98,29.91,3,0,10,1.29
2013-7-29,79,69,60,66,61,55,97,79,43,30.11,29.95,7,1,12,0.01
2013-7-30,77,66,58,61,57,54,89,74,51,30.17,30.11,7,0,11,0.01
2013-7-31,79,68,58,65,59,55,93,75,51,30.16,30.03,3,0,8,0.00
2013-8-1,67,65,63,66,64,61,97,96,90,30.03,29.83,5,0,16,0.85
2013-8-2,79,70,61,66,63,59,97,81,53,29.93,29.80,5,1,15,0.05
2013-8-3,75,67,62,67,62,57,94,85,71,29.93,29.84,6,1,15,0.11
2013-8-4,75,66,59,63,57,51,96,74,50,29.98,29.87,9,1,15,0.01
2013-8-5,75,63,53,57,52,46,89,68,41,30.06,29.98,6,1,16,0.00
2013-8-6,78,65,53,62,55,50,94,73,46,30.11,30.03,4,0,13,0.00
2013-8-7,74,68,63,68,64,60,96,90,75,30.12,30.04,6,1,13,0.30
2013-8-8,81,72,68,74,69,67,97,92,76,30.06,29.98,5,1,15,0.21
2013-8-9,83,74,71,75,72,69,97,94,77,30.01,29.81,6,1,16,0.60
2013-8-10,80,72,62,69,64,58,96,79,55,30.06,29.89,6,1,14,0.02
2013-8-11,77,67,55,66,58,52,95,74,49,30.12,30.03,4,0,11,0.00
2013-8-12,80,69,64,67,63,57,97,85,48,30.04,29.93,1,0,7,0.17
2013-8-13,78,68,64,70,63,-100,97,88,71,29.93,29.69,3,0,10,0.86
2013-8-14,70,61,54,63,50,-100,95,71,57,30.04,29.78,10,2,21,0.04
2013-8-15,57,54,53,51,50,50,89,86,79,30.06,30.06,0,0,5,0.00
2013-8-21,86,72,61,68,63,60,96,77,43,30.19,30.06,3,0,7,0.01
2013-8-22,79,71,67,73,69,64,97,91,76,30.07,29.89,3,0,10,1.25
2013-8-23,77,70,62,66,61,56,95,76,51,30.11,29.90,6,1,12,0.03
2013-8-24,77,65,54,58,53,51,91,67,41,30.34,30.11,5,1,11,0.00
2013-8-25,78,64,52,60,52,-100,97,72,45,30.39,30.23,3,0,10,0.00
2013-8-26,78,70,64,69,62,55,95,77,69,30.23,29.91,4,1,12,0.13
2013-8-27,83,73,68,68,67,65,94,82,58,29.91,29.83,6,2,13,0.14
2013-9-6,68,56,48,48,44,38,90,69,34,30.24,30.12,4,0,10,0.00
2013-9-7,76,61,45,59,49,43,96,70,40,30.11,29.90,4,1,10,0.00
2013-9-8,75,65,57,64,52,-100,84,67,41,30.07,29.82,8,1,19,0.00
2013-9-9,69,59,45,59,50,43,95,76,59,30.22,30.07,5,0,12,0.00
2013-9-10,83,72,63,75,68,59,97,88,74,30.15,30.05,4,1,13,0.00
2013-9-11,90,80,71,78,74,69,96,83,65,30.12,30.00,4,1,11,0.00
2013-9-12,80,72,65,76,70,64,97,92,82,30.01,29.70,5,0,11,0.74
2013-10-4,82,69,59,67,63,58,97,82,57,30.06,29.97,3,1,12,0.01
2013-10-5,78,68,61,68,64,60,97,88,66,30.09,30.01,3,0,7,0.07
2013-10-6,66,64,63,65,63,62,98,97,94,30.08,30.01,4,1,13,0.04
2013-10-7,71,64,54,69,62,47,98,93,76,30.01,29.72,9,2,21,0.71
2013-10-8,64,53,47,48,46,44,93,78,49,30.31,29.96,6,1,17,0.00
2013-10-9,58,51,43,47,44,38,92,76,61,30.37,30.27,4,0,14,0.00
2013-10-10,59,54,50,54,50,44,91,84,79,30.26,30.07,3,0,14,0.03
2013-10-18,64,56,46,62,46,41,94,70,49,29.96,29.66,5,2,0,0.00
2013-10-19,59,50,41,50,43,39,94,77,51,29.96,29.72,4,0,0,0.00
2013-10-20,60,49,43,50,37,-100,93,68,38,30.03,29.73,5,2,0,0.00
2013-10-21,64,51,40,44,39,36,90,67,38,30.11,29.95,4,1,0,0.00
2013-10-22,60,50,41,49,43,36,97,79,64,29.95,29.72,4,1,0,0.00
2013-10-23,52,43,36,38,35,32,88,73,52,29.79,29.58,2,-19,0,0.00
2013-10-24,50,42,34,35,31,26,90,68,42,29.96,29.73,5,2,0,0.00
2013-11-7,58,50,36,54,45,31,94,86,67,30.03,29.72,6,2,19,0.16
2013-11-8,45,39,34,33,28,23,86,65,47,30.16,29.88,10,2,20,0.02
2013-11-9,47,38,29,32,25,-100,87,64,46,30.22,29.94,5,1,13,0.00
2013-11-10,54,44,35,38,32,26,84,64,47,30.00,29.79,12,4,30,0.00
2013-11-11,49,43,34,34,30,26,72,58,50,30.16,29.92,8,2,17,0.00
2013-11-12,47,33,26,35,23,17,90,67,56,30.22,29.88,10,3,22,0.00
2013-11-13,36,29,24,21,17,13,77,62,41,30.31,30.21,9,3,19,0.00
2013-11-16,59,47,41,45,37,-100,93,72,43,30.28,30.19,2,0,0,0.00
2013-11-17,58,52,47,57,51,45,98,96,94,30.22,29.75,4,0,0,0.00
2013-11-18,61,55,46,59,41,25,96,61,36,29.76,29.57,8,4,0,0.00
2013-11-19,45,39,31,28,24,21,66,57,48,30.29,29.76,8,5,0,0.00
2013-11-20,43,32,25,21,18,5,75,59,21,30.55,30.29,7,2,0,0.00
2013-11-21,47,36,24,39,28,18,84,73,59,30.55,30.35,4,0,0,0.00
2013-11-22,52,48,44,48,45,39,94,88,82,30.35,29.89,3,-18,0,0.00
2013-12-5,54,49,43,53,47,40,97,95,85,30.06,29.90,2,0,8,0.04
2013-12-6,58,43,34,57,41,32,98,93,89,30.09,29.85,9,3,19,0.60
2013-12-7,35,31,26,32,23,-100,94,77,62,30.45,30.04,8,3,18,0.04
2013-12-8,28,25,22,26,18,15,94,76,63,30.51,30.31,4,0,9,0.01
2013-12-9,34,32,27,33,30,26,96,95,92,30.29,29.92,6,1,11,0.22
2013-12-10,33,29,23,31,26,15,95,88,72,30.03,29.82,3,1,14,0.01
2013-12-11,29,24,20,18,16,13,79,70,58,30.23,30.04,5,1,14,0.05